Time;durP1;ratioP1;P1;durP2;ratioP2;P2;SDS_P1;SDS_P2;PMS_P1;PMS_P2;Temp;Humidity;BMP_temperature;BMP_pressure;BME280_temperature;BME280_humidity;BME280_pressure;Samples;Min_cycle;Max_cycle;Signal;HPM_P1;HPM_P2
2023/05/16 08:06:36;;;;;;;10.80;1.70;;;;;;;10.80;80.88;101980.06;5086202;27;1209147;-70
2023/05/16 08:09:01;;;;;;;6.93;1.60;;;;;;;10.79;77.48;101985.69;5124277;28;20115;-74
2023/05/16 08:11:27;;;;;;;10.88;2.03;;;;;;;10.80;78.23;101980.06;5130539;28;20035;-69
2023/05/16 08:13:52;;;;;;;7.72;1.80;;;;;;;10.81;79.79;101981.75;5130301;28;20027;-73
2023/05/16 08:16:18;;;;;;;7.63;1.75;;;;;;;10.83;79.35;101976.16;5130529;28;20035;-71
2023/05/16 08:18:43;;;;;;;12.20;2.13;;;;;;;10.89;77.38;101983.47;5129299;28;20031;-70
2023/05/16 08:21:08;;;;;;;4.63;1.80;;;;;;;10.93;77.70;101978.47;5129506;28;20458;-71
2023/05/16 08:23:35;;;;;;;4.30;1.35;;;;;;;11.02;73.06;101985.44;5130268;28;20019;-71
2023/05/16 08:26:00;;;;;;;10.02;1.52;;;;;;;11.11;72.09;101980.66;5129780;28;20076;-70
2023/05/16 08:28:26;;;;;;;6.85;1.60;;;;;;;11.08;71.81;101992.75;5129370;28;20103;-74
2023/05/16 08:30:51;;;;;;;6.38;1.73;;;;;;;11.04;71.89;101983.34;5129884;28;20414;-70
2023/05/16 08:33:16;;;;;;;5.82;1.52;;;;;;;11.03;71.42;101981.66;5130112;28;20031;-74
2023/05/16 08:35:45;;;;;;;6.40;1.50;;;;;;;11.07;70.83;101988.38;5129012;28;20029;-71
2023/05/16 08:38:10;;;;;;;11.07;2.40;;;;;;;11.29;71.17;101990.97;5129919;28;20032;-71
2023/05/16 08:40:36;;;;;;;5.07;1.60;;;;;;;11.41;69.53;101985.81;5130097;28;20454;-73
2023/05/16 08:43:01;;;;;;;7.55;1.88;;;;;;;11.47;69.85;101975.00;5110496;28;20023;-75
2023/05/16 08:45:27;;;;;;;5.50;2.15;;;;;;;11.51;69.21;101973.53;5129880;28;20443;-73
2023/05/16 08:47:56;;;;;;;5.13;1.48;;;;;;;11.57;68.58;101976.47;5129919;28;20095;-72
2023/05/16 08:50:23;;;;;;;8.00;1.83;;;;;;;11.52;70.31;101975.22;5130391;28;20076;-74
2023/05/16 08:52:52;;;;;;;8.88;2.08;;;;;;;11.40;70.15;101971.44;5114628;28;20032;-75
2023/05/16 08:55:20;;;;;;;7.53;1.70;;;;;;;11.53;71.42;101968.75;5109156;28;20352;-75
2023/05/16 08:57:47;;;;;;;7.47;2.03;;;;;;;11.60;69.60;101970.66;5106281;28;20031;-77
2023/05/16 09:00:13;;;;;;;8.98;2.25;;;;;;;11.67;68.18;101963.34;5108303;28;20036;-71
2023/05/16 09:02:45;;;;;;;6.35;1.73;;;;;;;11.83;67.21;101962.97;5105948;28;20044;-74
2023/05/16 09:05:12;;;;;;;7.38;2.35;;;;;;;11.80;69.19;101966.09;5109117;28;20401;-72
2023/05/16 09:07:38;;;;;;;9.30;2.22;;;;;;;11.99;70.15;101961.78;5109432;28;20081;-70
2023/05/16 09:10:05;;;;;;;5.18;1.90;;;;;;;12.05;69.56;101979.94;5106735;28;20421;-75
2023/05/16 09:12:31;;;;;;;7.93;2.15;;;;;;;11.85;66.18;101974.47;5108517;28;20063;-71
2023/05/16 09:14:57;;;;;;;7.85;2.10;;;;;;;11.78;67.47;101980.91;5108173;28;20028;-74
2023/05/16 09:17:22;;;;;;;9.30;2.42;;;;;;;11.84;68.79;101972.78;5097708;28;20043;-76
2023/05/16 09:19:51;;;;;;;5.78;2.40;;;;;;;11.86;66.12;101970.69;5074292;28;20065;-72
2023/05/16 09:22:17;;;;;;;7.93;1.60;;;;;;;12.05;65.37;101976.41;5090459;28;20024;-70
2023/05/16 09:24:44;;;;;;;8.55;1.98;;;;;;;12.19;65.03;101971.81;5094731;28;20020;-71
2023/05/16 09:27:10;;;;;;;6.75;1.92;;;;;;;12.35;65.69;101968.69;5095252;28;20028;-70
2023/05/16 09:29:36;;;;;;;8.30;1.95;;;;;;;12.51;62.50;101970.13;5095097;28;20474;-71
2023/05/16 09:32:16;;;;;;;8.20;2.40;;;;;;;12.63;62.78;101970.31;5095038;28;20028;-70
2023/05/16 09:34:50;;;;;;;6.65;1.50;;;;;;;12.60;59.50;101968.03;5095657;28;20134;-69
2023/05/16 09:37:16;;;;;;;6.55;1.70;;;;;;;12.57;59.10;101971.16;5091282;28;20382;-70
2023/05/16 09:39:46;;;;;;;7.18;1.70;;;;;;;12.70;58.73;101963.00;5091445;28;20039;-67
2023/05/16 09:42:12;;;;;;;12.68;2.33;;;;;;;12.73;58.60;101965.28;5089908;28;20028;-74
2023/05/16 09:44:38;;;;;;;8.38;2.75;;;;;;;12.78;57.56;101967.38;5094978;28;20432;-68
2023/05/16 09:47:04;;;;;;;6.57;1.90;;;;;;;12.68;59.85;101977.84;5078955;28;20074;-68
2023/05/16 09:49:30;;;;;;;8.25;2.20;;;;;;;12.47;60.11;101976.19;5094613;28;20040;-70
2023/05/16 09:51:55;;;;;;;10.43;1.88;;;;;;;12.26;61.45;101982.66;5094653;28;20031;-71
2023/05/16 09:54:34;;;;;;;9.80;2.40;;;;;;;12.13;64.20;101978.91;5090309;28;20028;-76
2023/05/16 09:57:00;;;;;;;8.05;1.90;;;;;;;12.01;64.67;101975.13;5093790;28;20486;-70
2023/05/16 09:59:28;;;;;;;8.35;2.05;;;;;;;11.89;63.87;101975.69;5094057;28;20028;-70
2023/05/16 10:01:53;;;;;;;8.00;2.15;;;;;;;12.00;64.27;101970.75;5090242;28;20475;-70
2023/05/16 10:04:19;;;;;;;6.28;1.73;;;;;;;12.27;64.82;101974.31;5075673;28;20085;-70
2023/05/16 10:06:45;;;;;;;6.45;1.88;;;;;;;12.45;61.91;101981.81;5075470;28;20089;-70
2023/05/16 10:09:11;;;;;;;4.55;1.60;;;;;;;12.45;59.23;101981.81;5094657;28;20042;-70
2023/05/16 10:11:41;;;;;;;7.43;1.75;;;;;;;12.40;58.97;101987.06;5092707;28;20029;-71
2023/05/16 10:14:09;;;;;;;8.88;2.10;;;;;;;12.50;58.97;101976.63;5094195;28;20117;-70
2023/05/16 10:16:34;;;;;;;8.50;1.90;;;;;;;12.70;58.07;101967.63;5076341;28;20032;-73
2023/05/16 10:19:02;;;;;;;6.97;1.88;;;;;;;12.83;55.51;101969.44;5094161;28;20502;-70
2023/05/16 10:21:29;;;;;;;4.88;1.63;;;;;;;12.93;53.84;101967.94;5093611;28;20032;-70
2023/05/16 10:23:57;;;;;;;4.90;1.60;;;;;;;13.04;55.12;101971.06;5073475;28;20109;-71
2023/05/16 10:26:23;;;;;;;5.15;1.88;;;;;;;13.31;55.86;101966.34;5093035;28;20035;-71
2023/05/16 10:28:50;;;;;;;6.13;2.20;;;;;;;13.35;55.26;101964.91;5092668;28;20024;-70
2023/05/16 10:31:15;;;;;;;6.25;1.55;;;;;;;13.20;56.40;101969.75;5094081;28;20039;-75
2023/05/16 10:33:41;;;;;;;5.57;1.65;;;;;;;13.09;55.82;101968.56;5094376;28;20031;-71
2023/05/16 10:36:07;;;;;;;7.15;1.98;;;;;;;12.89;55.27;101974.03;5092374;28;20095;-71
2023/05/16 10:38:34;;;;;;;5.72;1.88;;;;;;;13.05;54.58;101976.28;5093569;28;20058;-71
2023/05/16 10:41:00;;;;;;;6.35;1.52;;;;;;;13.12;52.87;101970.84;5093723;28;20024;-72
2023/05/16 10:43:29;;;;;;;5.97;1.75;;;;;;;13.41;54.02;101963.22;5091210;28;20032;-70
2023/05/16 10:46:03;;;;;;;8.30;1.75;;;;;;;13.61;53.52;101960.38;5089205;28;20106;-70
2023/05/16 10:48:34;;;;;;;4.43;1.60;;;;;;;13.68;53.79;101972.06;5093671;28;20040;-70
2023/05/16 10:51:01;;;;;;;6.50;1.73;;;;;;;13.61;53.22;101966.66;5093330;28;20055;-70
2023/05/16 10:53:34;;;;;;;5.22;1.77;;;;;;;13.68;53.20;101969.34;5092730;28;20074;-70
2023/05/16 10:56:00;;;;;;;10.57;2.33;;;;;;;13.69;52.96;101970.19;5079970;28;20024;-78
2023/05/16 10:58:37;;;;;;;5.32;1.65;;;;;;;13.83;55.19;101960.88;5090537;28;20032;-71
2023/05/16 11:01:41;;;;;;;7.30;2.00;;;;;;;14.08;55.69;101968.25;5088187;28;20509;-69
2023/05/16 11:04:09;;;;;;;4.85;1.60;;;;;;;14.07;52.74;101972.00;5036456;28;20038;-70
2023/05/16 11:06:50;;;;;;;6.35;2.13;;;;;;;13.85;52.40;101987.88;5030449;28;20120;-67
2023/05/16 11:09:15;;;;;;;9.13;2.40;;;;;;;13.58;52.94;101977.97;5066649;28;20048;-69
2023/05/16 11:12:02;;;;;;;7.22;2.10;;;;;;;13.58;54.68;101975.25;5092277;28;20478;-70
2023/05/16 11:14:33;;;;;;;7.00;1.85;;;;;;;13.67;53.47;101980.44;5093387;28;20154;-70
2023/05/16 11:17:15;;;;;;;5.72;1.67;;;;;;;13.82;55.21;101976.34;5091644;28;20077;-70
2023/05/16 11:20:09;;;;;;;7.97;2.28;;;;;;;14.20;54.62;101969.19;5092784;28;20062;-75
2023/05/16 11:22:41;;;;;;;9.75;1.75;;;;;;;14.25;52.68;101963.94;5089362;28;20143;-69
2023/05/16 11:25:08;;;;;;;5.93;1.77;;;;;;;14.24;53.94;101972.31;5088664;28;20118;-69
2023/05/16 11:27:44;;;;;;;5.20;1.80;;;;;;;14.15;52.40;101979.91;5092750;28;20459;-70
2023/05/16 11:30:14;;;;;;;6.88;1.73;;;;;;;14.00;50.79;101983.78;5092804;28;20077;-70
2023/05/16 11:32:42;;;;;;;5.30;1.90;;;;;;;14.13;50.58;101966.53;5092747;28;20032;-69
2023/05/16 11:35:15;;;;;;;5.90;1.83;;;;;;;14.05;53.24;101982.28;5091994;28;20110;-70
2023/05/16 11:37:41;;;;;;;10.13;1.98;;;;;;;13.90;54.50;101988.88;5092866;28;20028;-70
2023/05/16 11:40:10;;;;;;;8.05;2.42;;;;;;;13.61;54.71;101979.44;5092479;28;20034;-70
2023/05/16 11:42:38;;;;;;;5.47;1.80;;;;;;;13.68;55.54;101979.38;5090898;28;20031;-69
2023/05/16 11:45:24;;;;;;;5.00;1.70;;;;;;;13.81;56.03;101987.47;5089733;28;20182;-72
2023/05/16 11:47:49;;;;;;;6.95;2.05;;;;;;;13.92;53.00;101984.06;5092578;28;20036;-69
2023/05/16 11:50:20;;;;;;;7.68;2.00;;;;;;;14.09;53.56;101978.09;5092527;28;20057;-70
2023/05/16 11:52:48;;;;;;;5.13;1.83;;;;;;;14.30;52.29;101963.25;5090852;28;20040;-69
2023/05/16 11:55:17;;;;;;;8.15;1.70;;;;;;;14.64;52.87;101978.25;5092567;28;20115;-69
2023/05/16 11:57:42;;;;;;;10.32;2.10;;;;;;;14.53;52.46;101968.88;5092074;28;20106;-70
2023/05/16 12:00:18;;;;;;;5.82;1.85;;;;;;;14.53;55.18;101974.34;5092645;28;20036;-69
2023/05/16 12:02:46;;;;;;;6.53;1.83;;;;;;;14.34;50.53;101978.06;5089303;28;20044;-69
2023/05/16 12:05:13;;;;;;;8.00;1.90;;;;;;;14.52;50.73;101990.91;5092142;28;20055;-69
2023/05/16 12:07:39;;;;;;;8.70;1.90;;;;;;;14.86;52.31;101983.28;5091104;28;20028;-69
2023/05/16 12:10:06;;;;;;;5.93;1.67;;;;;;;14.63;50.13;101995.66;5092411;28;20078;-69
2023/05/16 12:12:32;;;;;;;7.00;1.75;;;;;;;14.26;49.96;101990.06;5092539;28;20031;-70
2023/05/16 12:14:58;;;;;;;9.68;2.10;;;;;;;14.12;50.82;101986.63;5092010;28;20032;-69
2023/05/16 12:17:24;;;;;;;7.25;2.20;;;;;;;14.39;52.61;101982.84;5092476;28;20020;-69
2023/05/16 12:19:49;;;;;;;6.72;1.77;;;;;;;14.75;50.91;101987.59;5072941;28;20076;-69
2023/05/16 12:22:17;;;;;;;7.90;2.20;;;;;;;14.82;50.07;101984.78;5089901;28;20060;-69
2023/05/16 12:24:43;;;;;;;6.47;1.58;;;;;;;14.60;50.92;102001.53;5092240;28;20028;-69
2023/05/16 12:27:08;;;;;;;5.43;1.80;;;;;;;14.20;50.47;101995.59;5092055;28;20075;-68
2023/05/16 12:29:33;;;;;;;7.35;1.92;;;;;;;13.92;50.96;102000.38;5091315;28;20467;-68
2023/05/16 12:31:59;;;;;;;7.25;1.98;;;;;;;13.79;51.84;102000.47;5092223;28;20081;-68
2023/05/16 12:34:28;;;;;;;6.13;1.70;;;;;;;13.68;52.08;101992.97;5092055;28;20526;-68
2023/05/16 12:36:54;;;;;;;9.10;1.98;;;;;;;13.60;52.22;102003.09;5091916;28;20459;-69
2023/05/16 12:39:20;;;;;;;5.97;1.88;;;;;;;13.49;52.17;101997.47;5091221;28;20031;-68
2023/05/16 12:41:45;;;;;;;8.75;2.10;;;;;;;13.48;53.02;101999.34;5092309;28;20032;-69
2023/05/16 12:44:18;;;;;;;5.45;1.90;;;;;;;13.61;53.63;102007.44;5092154;28;20032;-69
2023/05/16 12:46:48;;;;;;;7.65;1.88;;;;;;;13.74;53.57;102002.97;5092311;28;20111;-69
2023/05/16 12:49:14;;;;;;;6.35;1.80;;;;;;;13.79;52.92;102004.00;5087249;28;20083;-69
2023/05/16 12:51:39;;;;;;;5.65;1.90;;;;;;;13.78;52.10;102017.81;5072950;28;20020;-73
2023/05/16 12:54:10;;;;;;;6.10;1.90;;;;;;;13.74;52.66;102008.44;5075337;28;20450;-70
2023/05/16 12:56:37;;;;;;;5.13;1.83;;;;;;;13.74;51.34;102002.97;5075758;28;20033;-71
2023/05/16 12:59:02;;;;;;;5.35;1.90;;;;;;;13.72;51.39;102005.09;5087344;28;20107;-71
2023/05/16 13:01:28;;;;;;;5.78;2.10;;;;;;;13.63;51.27;102018.97;5075412;28;20466;-70
2023/05/16 13:03:53;;;;;;;4.95;1.75;;;;;;;13.63;50.38;102007.22;5093689;28;20028;-70
2023/05/16 13:06:18;;;;;;;5.43;1.90;;;;;;;13.60;50.41;102000.38;5095509;28;20071;-70
2023/05/16 13:08:43;;;;;;;6.45;2.00;;;;;;;13.49;50.78;102001.03;5093308;28;20053;-74
2023/05/16 13:11:09;;;;;;;6.60;2.00;;;;;;;13.59;52.94;102006.03;5093333;28;20105;-69
2023/05/16 13:13:34;;;;;;;5.13;1.60;;;;;;;13.65;53.21;102002.44;5093716;28;20387;-68
2023/05/16 13:16:00;;;;;;;5.90;1.83;;;;;;;13.57;53.48;102010.81;5095268;28;20157;-69
2023/05/16 13:18:25;;;;;;;6.35;2.15;;;;;;;13.51;54.58;102007.06;5094197;28;20035;-68
2023/05/16 13:20:51;;;;;;;6.45;1.88;;;;;;;13.42;53.64;102013.81;5095419;28;20031;-68
2023/05/16 13:23:17;;;;;;;6.70;1.75;;;;;;;13.33;54.33;102007.78;5095295;28;20119;-69
2023/05/16 13:25:42;;;;;;;9.85;1.83;;;;;;;13.37;55.04;102013.63;5095450;28;20139;-68
2023/05/16 13:28:07;;;;;;;4.95;1.73;;;;;;;13.41;53.82;102004.00;5093306;28;20466;-69
2023/05/16 13:30:33;;;;;;;6.95;1.98;;;;;;;13.46;53.28;102015.06;5094817;28;20458;-69
2023/05/16 13:32:58;;;;;;;6.75;2.00;;;;;;;13.52;55.04;102003.31;5095063;28;20058;-70
2023/05/16 13:35:23;;;;;;;6.57;2.00;;;;;;;13.54;53.82;102011.25;5077089;28;20072;-70
2023/05/16 13:37:49;;;;;;;7.68;2.28;;;;;;;13.47;54.02;102008.56;5094097;28;20032;-70
2023/05/16 13:40:14;;;;;;;5.75;2.00;;;;;;;13.41;54.85;102009.44;5094720;28;20065;-70
2023/05/16 13:42:40;;;;;;;6.93;2.15;;;;;;;13.38;54.44;102027.00;5094920;28;20024;-70
2023/05/16 13:45:06;;;;;;;5.75;2.17;;;;;;;13.27;54.25;102014.91;5092868;28;20028;-72
2023/05/16 13:47:32;;;;;;;7.40;2.03;;;;;;;13.23;55.45;102019.09;5091431;28;20028;-70
2023/05/16 13:49:58;;;;;;;6.03;2.10;;;;;;;13.28;55.68;102019.25;5092042;28;20122;-69
2023/05/16 13:52:23;;;;;;;6.95;2.05;;;;;;;13.25;54.76;102016.16;5094403;28;20052;-70
2023/05/16 13:54:49;;;;;;;4.35;1.90;;;;;;;13.36;55.78;102018.25;5094499;28;20086;-70
2023/05/16 13:57:14;;;;;;;5.43;1.88;;;;;;;13.38;54.84;102020.75;5094359;28;20035;-70
2023/05/16 13:59:39;;;;;;;7.80;1.88;;;;;;;13.43;55.38;102021.75;5094913;28;20081;-76
2023/05/16 14:02:05;;;;;;;5.47;1.90;;;;;;;13.41;54.27;102020.31;5092034;28;20071;-73
2023/05/16 14:04:30;;;;;;;6.45;1.98;;;;;;;13.42;55.22;102021.97;5093703;28;20514;-73
2023/05/16 14:06:55;;;;;;;6.05;1.70;;;;;;;13.36;55.37;102020.13;5069409;28;20020;-71
2023/05/16 14:09:21;;;;;;;4.68;1.60;;;;;;;13.29;55.35;102011.97;5079034;28;20025;-70
2023/05/16 14:11:46;;;;;;;7.10;1.90;;;;;;;13.32;56.82;102024.31;5074323;28;20031;-71
2023/05/16 14:14:11;;;;;;;5.68;1.63;;;;;;;13.29;57.65;102023.66;5094690;28;20031;-71
2023/05/16 14:16:37;;;;;;;4.50;1.52;;;;;;;13.25;55.51;102029.75;5092650;28;20115;-71
2023/05/16 14:19:02;;;;;;;6.50;2.10;;;;;;;13.27;56.29;102027.63;5092042;28;20077;-71
2023/05/16 14:21:27;;;;;;;8.27;1.98;;;;;;;13.34;56.26;102025.75;5093189;28;20111;-71
2023/05/16 14:23:53;;;;;;;6.03;1.80;;;;;;;13.37;56.26;102029.94;5075413;28;20024;-71
2023/05/16 14:26:23;;;;;;;6.82;1.95;;;;;;;13.40;55.89;102030.34;5092105;28;20035;-71
2023/05/16 14:28:49;;;;;;;4.85;1.65;;;;;;;13.41;55.50;102032.03;5077800;28;20151;-71
2023/05/16 14:31:14;;;;;;;4.53;1.52;;;;;;;13.41;54.72;102026.59;5093951;28;20511;-70
2023/05/16 14:33:40;;;;;;;4.05;1.40;;;;;;;13.36;52.62;102025.56;5093247;28;20425;-72
2023/05/16 14:36:06;;;;;;;5.28;1.60;;;;;;;13.35;53.69;102029.34;5091012;28;20032;-70
2023/05/16 14:38:31;;;;;;;5.45;1.90;;;;;;;13.33;53.93;102028.66;5092310;28;20036;-70
2023/05/16 14:40:57;;;;;;;7.25;2.25;;;;;;;13.32;54.61;102027.03;5075509;28;20058;-70
2023/05/16 14:43:22;;;;;;;5.20;1.80;;;;;;;13.36;55.59;102022.84;5092957;28;20107;-71
2023/05/16 14:45:47;;;;;;;4.40;1.70;;;;;;;13.38;54.89;102027.00;5098283;28;20031;-70
2023/05/16 14:48:13;;;;;;;5.45;1.83;;;;;;;13.36;54.07;102031.84;5071141;28;20074;-70
2023/05/16 14:50:38;;;;;;;6.65;1.90;;;;;;;13.34;53.63;102025.75;5091860;28;20035;-71
2023/05/16 14:53:03;;;;;;;5.97;1.65;;;;;;;13.28;53.53;102027.41;5090680;28;20062;-68
2023/05/16 14:55:29;;;;;;;6.97;1.70;;;;;;;13.27;54.40;102035.78;5092916;28;20028;-68
2023/05/16 14:57:54;;;;;;;6.13;1.50;;;;;;;13.18;53.95;102037.94;5093711;28;20020;-68
2023/05/16 15:00:23;;;;;;;5.30;1.70;;;;;;;13.22;54.89;102033.72;5093234;28;20187;-68
2023/05/16 15:02:49;;;;;;;6.13;1.60;;;;;;;13.17;53.76;102035.44;5091182;28;20044;-72
2023/05/16 15:05:14;;;;;;;3.90;1.52;;;;;;;13.24;55.16;102033.50;5092450;28;20052;-68
2023/05/16 15:07:40;;;;;;;7.97;1.80;;;;;;;13.25;55.08;102030.56;5087264;28;20071;-68
2023/05/16 15:10:06;;;;;;;7.57;2.03;;;;;;;13.24;54.74;102030.78;5090883;28;20039;-68
2023/05/16 15:12:31;;;;;;;5.10;1.70;;;;;;;13.35;55.12;102040.22;5093324;28;20020;-68
2023/05/16 15:14:56;;;;;;;6.60;1.70;;;;;;;13.55;54.32;102038.22;5091215;28;20387;-68
2023/05/16 15:17:22;;;;;;;5.30;1.73;;;;;;;13.78;54.02;102031.44;5073121;28;20387;-68
2023/05/16 15:19:47;;;;;;;6.68;1.88;;;;;;;13.81;52.46;102031.84;5093102;28;20032;-68
2023/05/16 15:22:13;;;;;;;4.13;1.50;;;;;;;14.61;52.32;102022.28;5091646;28;20469;-68
2023/05/16 15:24:38;;;;;;;6.03;1.60;;;;;;;14.99;51.27;102032.22;5092717;28;20119;-69
2023/05/16 15:27:04;;;;;;;5.60;1.58;;;;;;;15.07;47.07;102033.81;5070281;28;20112;-68
2023/05/16 15:29:30;;;;;;;4.82;1.50;;;;;;;15.20;47.02;102025.47;5083092;28;20048;-68
2023/05/16 15:31:55;;;;;;;6.50;1.70;;;;;;;15.43;47.54;102032.13;5091726;28;20043;-68
2023/05/16 15:34:20;;;;;;;9.07;1.63;;;;;;;16.04;45.91;102016.63;5106439;28;20102;-69
2023/05/16 15:36:45;;;;;;;6.15;2.00;;;;;;;16.03;46.14;102031.34;5108962;28;20027;-70
2023/05/16 15:39:11;;;;;;;5.25;1.70;;;;;;;15.53;45.86;102037.03;5090440;28;20386;-69
2023/05/16 15:41:36;;;;;;;6.45;1.48;;;;;;;15.12;46.48;102030.41;5089040;28;20060;-69
2023/05/16 15:44:01;;;;;;;6.28;1.77;;;;;;;14.80;48.13;102036.78;5091587;28;20375;-69
2023/05/16 15:46:29;;;;;;;5.90;1.60;;;;;;;14.56;48.37;102038.44;5092451;28;20067;-69
2023/05/16 15:48:54;;;;;;;9.00;1.45;;;;;;;14.60;48.62;102034.22;5100696;28;20457;-69
2023/05/16 15:51:19;;;;;;;6.47;1.52;;;;;;;14.81;47.50;102049.38;5091618;28;20064;-69
2023/05/16 15:53:46;;;;;;;4.50;1.45;;;;;;;14.78;46.90;102041.63;5092468;28;20114;-68
2023/05/16 15:56:11;;;;;;;5.13;1.20;;;;;;;14.76;47.23;102046.47;5092647;28;20374;-68
2023/05/16 15:58:37;;;;;;;4.18;1.20;;;;;;;14.56;47.41;102043.06;5091766;28;20028;-70
2023/05/16 16:01:02;;;;;;;6.28;1.58;;;;;;;14.32;47.95;102049.09;5086936;28;20154;-70
